createdAt,value
2018-03-29T00:02:13.993Z,30.40
2018-03-29T00:04:41.742Z,31.20
2018-03-29T00:07:09.638Z,31.57
2018-03-29T00:09:37.113Z,32.47
2018-03-29T00:12:04.398Z,33.60
2018-03-29T00:14:31.668Z,31.40
2018-03-29T00:16:58.953Z,31.57
2018-03-29T00:19:26.222Z,32.20
2018-03-29T00:21:53.518Z,32.30
2018-03-29T00:24:20.791Z,33.80
2018-03-29T00:26:48.065Z,31.30
2018-03-29T00:29:15.722Z,32.27
2018-03-29T00:31:43.018Z,31.70
2018-03-29T00:34:10.286Z,30.53
2018-03-29T00:36:37.557Z,30.63
2018-03-29T00:39:04.520Z,31.53
2018-03-29T00:41:31.795Z,32.20
2018-03-29T00:43:59.082Z,31.83
2018-03-29T00:46:26.357Z,32.43
2018-03-29T00:48:54.346Z,29.93
2018-03-29T00:51:21.623Z,29.40
2018-03-29T00:53:48.907Z,30.20
2018-03-29T00:56:16.165Z,28.23
2018-03-29T00:58:43.429Z,30.23
2018-03-29T01:01:10.714Z,33.20
2018-03-29T01:03:38.012Z,30.93
2018-03-29T01:06:05.281Z,39.83
2018-03-29T01:08:33.240Z,35.37
2018-03-29T01:11:00.534Z,32.40
2018-03-29T01:13:27.796Z,33.90
2018-03-29T01:15:55.061Z,31.23
2018-03-29T01:18:22.353Z,31.57
2018-03-29T01:20:49.643Z,30.43
2018-03-29T01:23:17.125Z,26.00
2018-03-29T01:25:44.414Z,29.60
2018-03-29T01:28:11.760Z,28.70
2018-03-29T01:30:39.032Z,27.27
2018-03-29T01:33:06.306Z,25.53
2018-03-29T01:35:33.570Z,27.70
2018-03-29T01:38:00.868Z,27.63
2018-03-29T01:40:28.134Z,29.57
2018-03-29T01:42:55.417Z,31.40
2018-03-29T01:45:22.692Z,28.87
2018-03-29T01:47:49.957Z,25.63
2018-03-29T01:50:17.226Z,25.57
2018-03-29T01:52:44.500Z,20.27
2018-03-29T01:55:11.768Z,20.43
2018-03-29T01:57:39.042Z,20.73
2018-03-29T02:00:10.636Z,19.77
2018-03-29T02:02:38.020Z,17.17
2018-03-29T02:05:08.055Z,16.70
2018-03-29T02:07:35.313Z,14.53
2018-03-29T02:10:02.594Z,16.10
2018-03-29T02:12:29.864Z,15.23
2018-03-29T02:14:57.125Z,12.90
2018-03-29T02:17:24.389Z,15.73
2018-03-29T02:19:51.678Z,14.57
2018-03-29T02:22:18.957Z,16.20
2018-03-29T02:24:46.230Z,19.23
2018-03-29T02:27:13.494Z,16.27
2018-03-29T02:29:40.757Z,18.33
2018-03-29T02:32:07.811Z,19.00
2018-03-29T02:34:35.085Z,21.47
2018-03-29T02:37:02.362Z,18.70
2018-03-29T02:39:29.638Z,18.27
2018-03-29T02:41:57.155Z,15.23
2018-03-29T02:44:24.416Z,15.73
2018-03-29T02:46:51.690Z,16.10
2018-03-29T02:49:18.959Z,18.30
2018-03-29T02:51:46.257Z,18.67
2018-03-29T02:54:13.523Z,20.60
2018-03-29T02:56:40.867Z,22.43
2018-03-29T02:59:08.190Z,23.80
2018-03-29T03:01:35.470Z,24.73
2018-03-29T03:04:02.738Z,23.30
2018-03-29T03:06:30.187Z,23.37
2018-03-29T03:08:57.457Z,24.10
2018-03-29T03:11:24.737Z,25.57
2018-03-29T03:13:52.018Z,25.73
2018-03-29T03:16:19.296Z,25.30
2018-03-29T03:18:46.569Z,23.90
2018-03-29T03:21:13.842Z,19.73
2018-03-29T03:23:42.029Z,20.87
2018-03-29T03:26:09.292Z,20.93
2018-03-29T03:28:36.817Z,22.40
2018-03-29T03:31:04.105Z,22.63
2018-03-29T03:33:31.386Z,20.10
2018-03-29T03:35:58.697Z,21.23
2018-03-29T03:38:25.982Z,20.50
2018-03-29T03:40:53.272Z,20.27
2018-03-29T03:43:20.557Z,19.10
2018-03-29T03:45:47.826Z,20.50
2018-03-29T03:48:15.169Z,19.00
2018-03-29T03:50:42.433Z,20.47
2018-03-29T03:53:09.760Z,18.97
2018-03-29T03:55:37.042Z,18.60
2018-03-29T03:58:04.021Z,16.67
2018-03-29T04:00:31.291Z,20.40
2018-03-29T04:02:58.571Z,18.47
2018-03-29T04:05:25.842Z,17.90
2018-03-29T04:07:53.258Z,16.77
2018-03-29T04:10:20.529Z,17.13
2018-03-29T04:12:48.474Z,16.70
2018-03-29T04:15:15.744Z,15.93
2018-03-29T04:17:43.046Z,14.80
2018-03-29T04:20:12.149Z,14.43
2018-03-29T04:22:39.431Z,15.80
2018-03-29T04:25:07.724Z,13.50
2018-03-29T04:27:35.010Z,12.27
2018-03-29T04:30:02.321Z,13.07
2018-03-29T04:32:29.595Z,14.03
2018-03-29T04:34:56.861Z,12.73
2018-03-29T04:37:24.553Z,12.13
2018-03-29T04:39:51.820Z,13.80
2018-03-29T04:42:19.100Z,16.97
2018-03-29T04:44:46.367Z,7.87
2018-03-29T04:47:13.631Z,31.50
2018-03-29T04:49:41.818Z,6.33
2018-03-29T04:52:09.122Z,6.57
2018-03-29T04:54:36.391Z,5.80
2018-03-29T04:57:03.656Z,15.03
2018-03-29T04:59:30.913Z,11.83
2018-03-29T05:01:58.253Z,8.30
2018-03-29T05:04:25.540Z,14.63
2018-03-29T05:06:52.795Z,1.03
2018-03-29T05:09:20.173Z,0.83
2018-03-29T05:11:47.574Z,0.50
2018-03-29T05:14:14.827Z,0.50
2018-03-29T05:16:42.164Z,8.93
2018-03-29T05:19:09.412Z,0.60
2018-03-29T05:21:36.696Z,0.70
2018-03-29T05:24:03.999Z,0.70
2018-03-29T05:26:36.841Z,0.70
2018-03-29T05:29:04.096Z,0.50
2018-03-29T05:31:31.365Z,0.50
2018-03-29T05:33:58.650Z,0.57
2018-03-29T05:36:25.690Z,0.70
2018-03-29T05:38:53.286Z,0.70
2018-03-29T05:41:20.548Z,0.67
2018-03-29T05:43:47.826Z,0.60
2018-03-29T05:46:15.112Z,0.60
2018-03-29T05:48:42.523Z,0.53
2018-03-29T05:51:09.787Z,0.60
2018-03-29T05:53:37.063Z,0.60
2018-03-29T05:56:04.345Z,0.50
2018-03-29T05:58:31.610Z,0.60
2018-03-29T06:00:58.879Z,0.67
2018-03-29T06:03:26.134Z,0.60
2018-03-29T06:05:53.536Z,0.60
2018-03-29T06:08:20.809Z,0.50
2018-03-29T06:10:48.080Z,0.53
2018-03-29T06:13:15.345Z,0.40
2018-03-29T06:15:42.401Z,0.80
2018-03-29T06:18:09.456Z,0.80
2018-03-29T06:20:36.702Z,0.50
2018-03-29T06:23:03.962Z,0.60
2018-03-29T06:25:31.228Z,0.60
2018-03-29T06:27:58.496Z,0.50
2018-03-29T06:30:25.750Z,0.73
2018-03-29T06:32:53.147Z,0.63
2018-03-29T06:35:20.401Z,0.53
2018-03-29T06:37:47.671Z,0.50
2018-03-29T06:40:14.615Z,0.53
2018-03-29T06:42:42.162Z,0.60
2018-03-29T06:45:09.470Z,0.50
2018-03-29T06:47:36.754Z,0.73
2018-03-29T06:50:04.260Z,0.50
2018-03-29T06:52:33.033Z,1.00
2018-03-29T06:55:00.302Z,0.53
2018-03-29T06:57:27.579Z,0.70
2018-03-29T06:59:54.863Z,0.90
2018-03-29T07:02:22.497Z,0.93
2018-03-29T07:04:49.779Z,0.70
2018-03-29T07:07:17.876Z,0.97
2018-03-29T07:09:45.135Z,1.13
2018-03-29T07:12:12.412Z,0.70
2018-03-29T07:14:39.685Z,0.80
2018-03-29T07:17:06.963Z,0.70
2018-03-29T07:19:34.230Z,0.60
2018-03-29T07:22:01.505Z,0.63
2018-03-29T07:24:29.371Z,0.87
2018-03-29T07:26:56.826Z,0.70
2018-03-29T07:29:24.101Z,0.87
2018-03-29T07:31:51.558Z,1.00
2018-03-29T07:34:18.827Z,1.63
2018-03-29T07:36:46.088Z,1.03
2018-03-29T07:39:13.361Z,1.20
2018-03-29T07:41:40.623Z,0.70
2018-03-29T07:44:07.910Z,1.10
2018-03-29T07:46:35.169Z,0.70
2018-03-29T07:49:03.540Z,0.90
2018-03-29T07:51:30.887Z,1.30
2018-03-29T07:53:58.153Z,1.10
2018-03-29T07:56:25.445Z,0.90
2018-03-29T07:58:52.786Z,1.20
2018-03-29T08:01:20.072Z,1.03
2018-03-29T08:03:47.490Z,1.07
2018-03-29T08:06:14.766Z,0.83
2018-03-29T08:08:42.208Z,1.03
2018-03-29T08:11:09.465Z,1.20
2018-03-29T08:13:36.757Z,1.40
2018-03-29T08:16:04.031Z,1.13
2018-03-29T08:18:31.322Z,0.97
2018-03-29T08:20:58.600Z,1.00
2018-03-29T08:23:25.853Z,1.00
2018-03-29T08:25:53.128Z,3.40
2018-03-29T08:28:20.389Z,4.17
2018-03-29T08:30:47.862Z,1.13
2018-03-29T08:33:15.112Z,1.67
2018-03-29T08:35:42.377Z,1.73
2018-03-29T08:38:09.666Z,3.37
2018-03-29T08:40:36.930Z,1.70
2018-03-29T08:43:04.279Z,1.23
2018-03-29T08:45:31.535Z,1.00
2018-03-29T08:47:58.793Z,1.77
2018-03-29T08:50:26.065Z,1.40
2018-03-29T08:52:53.321Z,1.30
2018-03-29T08:55:20.594Z,1.53
2018-03-29T08:57:47.854Z,1.43
2018-03-29T09:00:15.765Z,2.00
2018-03-29T09:02:43.064Z,1.27
2018-03-29T09:05:10.527Z,1.30
2018-03-29T09:07:37.773Z,1.40
2018-03-29T09:10:05.200Z,1.17
2018-03-29T09:12:32.470Z,1.37
2018-03-29T09:14:59.736Z,1.57
2018-03-29T09:17:26.996Z,1.70
2018-03-29T09:19:54.277Z,1.43
2018-03-29T09:22:21.551Z,1.57
2018-03-29T09:24:48.809Z,1.60
2018-03-29T09:27:16.089Z,1.30
2018-03-29T09:29:43.368Z,1.73
2018-03-29T09:32:10.629Z,1.63
2018-03-29T09:34:37.921Z,1.63
2018-03-29T09:37:05.262Z,1.77
2018-03-29T09:39:32.619Z,1.70
2018-03-29T09:41:59.892Z,2.20
2018-03-29T09:44:27.170Z,1.87
2018-03-29T09:46:54.437Z,1.93
2018-03-29T09:49:21.686Z,1.30
2018-03-29T09:51:48.953Z,1.30
2018-03-29T09:54:16.235Z,1.67
2018-03-29T09:56:43.527Z,1.63
2018-03-29T09:59:10.815Z,1.77
2018-03-29T10:01:37.855Z,1.77
2018-03-29T10:04:10.678Z,1.30
2018-03-29T10:06:41.520Z,1.10
2018-03-29T10:09:08.812Z,1.60
2018-03-29T10:11:36.081Z,1.47
2018-03-29T10:14:03.350Z,1.60
2018-03-29T10:16:30.617Z,1.70
2018-03-29T10:18:57.896Z,1.70
2018-03-29T10:21:25.165Z,1.50
2018-03-29T10:23:52.438Z,1.53
2018-03-29T10:26:19.697Z,1.30
2018-03-29T10:28:46.953Z,1.53
2018-03-29T10:31:14.298Z,2.40
2018-03-29T10:33:41.556Z,1.80
2018-03-29T10:36:08.850Z,1.53
2018-03-29T10:38:36.108Z,1.60
2018-03-29T10:41:03.382Z,1.30
2018-03-29T10:43:30.652Z,1.40
2018-03-29T10:45:58.070Z,2.03
2018-03-29T10:48:25.330Z,1.70
2018-03-29T10:50:52.590Z,1.43
2018-03-29T10:53:19.866Z,2.20
2018-03-29T10:55:47.144Z,2.10
2018-03-29T10:58:14.416Z,1.80
2018-03-29T11:00:54.564Z,2.50
2018-03-29T11:03:21.825Z,2.10
2018-03-29T11:05:49.109Z,1.57
2018-03-29T11:08:16.375Z,1.80
2018-03-29T11:10:43.631Z,2.10
2018-03-29T11:13:10.896Z,2.53
2018-03-29T11:15:38.690Z,1.80
2018-03-29T11:18:06.170Z,1.80
2018-03-29T11:20:33.418Z,1.50
2018-03-29T11:23:00.694Z,1.57
2018-03-29T11:25:27.957Z,1.93
2018-03-29T11:27:55.238Z,1.83
2018-03-29T11:30:22.512Z,1.97
2018-03-29T11:32:49.766Z,1.07
2018-03-29T11:35:17.018Z,1.63
2018-03-29T11:37:44.279Z,1.50
2018-03-29T11:40:11.542Z,1.53
2018-03-29T11:42:38.814Z,1.57
2018-03-29T11:45:06.122Z,1.33
2018-03-29T11:47:33.405Z,1.70
2018-03-29T11:50:00.665Z,1.90
2018-03-29T11:52:27.920Z,1.40
2018-03-29T11:54:55.185Z,1.63
2018-03-29T11:57:22.472Z,1.53
2018-03-29T11:59:49.747Z,1.57
2018-03-29T12:02:17.024Z,1.37
2018-03-29T12:04:44.374Z,1.73
2018-03-29T12:07:11.660Z,1.73
2018-03-29T12:09:38.954Z,1.73
2018-03-29T12:12:06.222Z,1.17
2018-03-29T12:14:33.480Z,2.00
2018-03-29T12:17:00.727Z,1.27
2018-03-29T12:19:27.996Z,1.57
2018-03-29T12:21:55.256Z,1.33
2018-03-29T12:24:22.546Z,1.40
2018-03-29T12:26:49.807Z,1.53
2018-03-29T12:29:17.094Z,1.57
2018-03-29T12:31:44.394Z,1.27
2018-03-29T12:34:11.676Z,1.50
2018-03-29T12:36:38.938Z,1.10
2018-03-29T12:39:05.873Z,1.17
2018-03-29T12:41:33.163Z,1.00
2018-03-29T12:44:00.452Z,1.27
2018-03-29T12:46:27.723Z,1.20
2018-03-29T12:48:54.997Z,1.30
2018-03-29T12:51:22.270Z,1.50
2018-03-29T12:53:49.534Z,0.93
2018-03-29T12:56:32.269Z,0.90
2018-03-29T12:58:59.534Z,1.33
2018-03-29T13:01:27.271Z,1.27
2018-03-29T13:03:54.578Z,1.00
2018-03-29T13:06:21.848Z,1.23
2018-03-29T13:08:49.112Z,2.07
2018-03-29T13:11:16.371Z,1.07
2018-03-29T13:13:43.637Z,1.33
2018-03-29T13:16:10.906Z,0.90
2018-03-29T13:18:38.202Z,1.30
2018-03-29T13:21:05.517Z,2.03
2018-03-29T13:23:32.464Z,1.40
2018-03-29T13:25:59.745Z,1.33
2018-03-29T13:28:27.029Z,1.20
2018-03-29T13:30:54.109Z,1.17
2018-03-29T13:33:21.563Z,1.10
2018-03-29T13:35:48.822Z,1.40
2018-03-29T13:38:16.122Z,1.27
2018-03-29T13:40:43.387Z,0.90
2018-03-29T13:43:10.648Z,1.30
2018-03-29T13:45:37.918Z,1.50
2018-03-29T13:48:04.939Z,1.30
2018-03-29T13:50:32.196Z,1.20
2018-03-29T13:52:59.467Z,1.07
2018-03-29T13:55:26.729Z,1.67
2018-03-29T13:57:53.766Z,1.40
2018-03-29T14:00:21.021Z,1.20
2018-03-29T14:02:48.304Z,1.23
2018-03-29T14:05:15.554Z,1.40
2018-03-29T14:07:42.830Z,1.30
2018-03-29T14:10:10.089Z,1.10
2018-03-29T14:12:37.365Z,1.20
2018-03-29T14:15:04.770Z,1.40
2018-03-29T14:17:32.064Z,1.20
2018-03-29T14:19:59.315Z,1.20
2018-03-29T14:22:26.567Z,1.10
2018-03-29T14:24:53.834Z,1.43
2018-03-29T14:27:21.093Z,1.00
2018-03-29T14:29:48.350Z,1.00
2018-03-29T14:32:15.616Z,1.03
2018-03-29T14:34:42.898Z,0.80
2018-03-29T14:37:10.172Z,0.83
2018-03-29T14:39:37.631Z,0.90
2018-03-29T14:42:04.894Z,0.90
2018-03-29T14:44:32.361Z,1.43
2018-03-29T14:46:59.659Z,1.30
2018-03-29T14:49:27.109Z,1.10
2018-03-29T14:51:54.397Z,1.47
2018-03-29T14:54:21.662Z,0.83
2018-03-29T14:56:48.924Z,0.90
2018-03-29T14:59:16.188Z,0.90
2018-03-29T15:01:43.450Z,0.70
2018-03-29T15:04:10.706Z,0.73
2018-03-29T15:06:37.977Z,0.77
2018-03-29T15:09:04.906Z,0.73
2018-03-29T15:11:32.165Z,1.00
2018-03-29T15:13:59.446Z,0.80
2018-03-29T15:16:26.880Z,0.80
2018-03-29T15:18:54.142Z,0.73
2018-03-29T15:21:21.406Z,0.80
2018-03-29T15:23:48.685Z,0.77
2018-03-29T15:26:15.958Z,1.00
2018-03-29T15:28:43.233Z,1.00
2018-03-29T15:31:10.264Z,0.80
2018-03-29T15:33:37.524Z,1.10
2018-03-29T15:36:04.792Z,0.80
2018-03-29T15:38:32.068Z,0.77
2018-03-29T15:40:59.323Z,0.60
2018-03-29T15:43:26.595Z,1.00
2018-03-29T15:45:53.878Z,9.13
2018-03-29T15:48:21.135Z,3.70
2018-03-29T15:50:48.414Z,20.53
2018-03-29T15:53:15.869Z,7.20
2018-03-29T15:55:43.149Z,6.50
2018-03-29T15:58:10.410Z,8.50
2018-03-29T16:00:37.673Z,9.30
2018-03-29T16:03:04.953Z,3.53
2018-03-29T16:05:32.211Z,1.30
2018-03-29T16:07:59.499Z,1.10
2018-03-29T16:10:26.757Z,1.30
2018-03-29T16:12:54.017Z,1.10
2018-03-29T16:15:21.289Z,1.30
2018-03-29T16:17:48.578Z,1.50
2018-03-29T16:20:15.858Z,1.17
2018-03-29T16:22:43.109Z,1.67
2018-03-29T16:25:10.764Z,1.57
2018-03-29T16:27:38.016Z,1.40
2018-03-29T16:30:07.787Z,1.80
2018-03-29T16:32:35.054Z,1.63
2018-03-29T16:35:02.333Z,1.23
2018-03-29T16:37:29.599Z,1.67
2018-03-29T16:39:57.085Z,1.30
2018-03-29T16:42:24.129Z,1.07
2018-03-29T16:44:51.443Z,1.63
2018-03-29T16:47:18.544Z,1.20
2018-03-29T16:49:45.807Z,1.43
2018-03-29T16:52:13.317Z,1.17
2018-03-29T16:54:40.726Z,1.47
2018-03-29T16:57:08.014Z,1.63
2018-03-29T16:59:35.274Z,0.90
2018-03-29T17:02:02.569Z,1.93
2018-03-29T17:04:29.854Z,1.20
2018-03-29T17:06:57.117Z,1.37
2018-03-29T17:09:24.544Z,1.17
2018-03-29T17:11:51.806Z,1.67
2018-03-29T17:14:19.709Z,1.30
2018-03-29T17:16:47.023Z,1.20
2018-03-29T17:19:14.444Z,1.20
2018-03-29T17:21:41.714Z,1.87
2018-03-29T17:24:09.028Z,1.30
2018-03-29T17:26:36.288Z,1.40
2018-03-29T17:29:03.256Z,1.70
2018-03-29T17:31:30.745Z,1.40
2018-03-29T17:33:58.045Z,1.50
2018-03-29T17:36:25.325Z,1.90
2018-03-29T17:38:52.664Z,1.27
2018-03-29T17:41:23.239Z,1.53
2018-03-29T17:43:50.521Z,1.00
2018-03-29T17:46:17.812Z,0.90
2018-03-29T17:48:45.104Z,1.03
2018-03-29T17:51:12.556Z,1.00
2018-03-29T17:53:39.845Z,0.80
2018-03-29T17:56:07.117Z,1.00
2018-03-29T17:58:34.808Z,1.47
2018-03-29T18:01:02.072Z,1.20
2018-03-29T18:03:29.540Z,0.93
2018-03-29T18:05:56.801Z,0.80
2018-03-29T18:08:24.080Z,0.70
2018-03-29T18:10:51.398Z,0.80
2018-03-29T18:13:18.802Z,1.07
2018-03-29T18:15:46.075Z,1.10
2018-03-29T18:18:13.341Z,0.77
2018-03-29T18:20:40.641Z,1.00
2018-03-29T18:23:07.893Z,1.40
2018-03-29T18:25:35.154Z,10.23
2018-03-29T18:28:02.446Z,4.97
2018-03-29T18:30:30.345Z,1.80
2018-03-29T18:32:57.806Z,1.13
2018-03-29T18:35:25.078Z,1.10
2018-03-29T18:37:52.727Z,1.17
2018-03-29T18:40:20.608Z,1.33
2018-03-29T18:42:47.857Z,1.17
2018-03-29T18:45:15.135Z,1.10
2018-03-29T18:47:42.392Z,0.93
2018-03-29T18:50:09.721Z,1.10
2018-03-29T18:52:36.994Z,1.03
2018-03-29T18:55:05.942Z,1.37
2018-03-29T18:57:34.642Z,1.27
2018-03-29T19:00:01.995Z,0.70
2018-03-29T19:02:29.270Z,1.20
2018-03-29T19:04:56.533Z,1.00
2018-03-29T19:07:23.798Z,0.90
2018-03-29T19:09:50.835Z,0.90
2018-03-29T19:12:18.111Z,0.90
2018-03-29T19:14:45.380Z,0.93
2018-03-29T19:17:12.668Z,1.73
2018-03-29T19:19:39.933Z,0.90
2018-03-29T19:22:07.207Z,1.13
2018-03-29T19:24:34.472Z,1.10
2018-03-29T19:27:01.737Z,0.90
2018-03-29T19:29:29.018Z,1.00
2018-03-29T19:31:56.306Z,1.00
2018-03-29T19:34:23.566Z,1.00
2018-03-29T19:36:50.832Z,0.90
2018-03-29T19:39:18.101Z,0.77
2018-03-29T19:41:45.353Z,0.77
2018-03-29T19:44:12.695Z,1.30
2018-03-29T19:46:39.968Z,0.67
2018-03-29T19:49:07.325Z,0.70
2018-03-29T19:51:34.590Z,0.67
2018-03-29T19:54:01.878Z,1.17
2018-03-29T19:56:29.149Z,0.83
2018-03-29T19:58:56.725Z,0.80
2018-03-29T20:01:23.989Z,0.93
2018-03-29T20:03:51.037Z,0.97
2018-03-29T20:06:18.303Z,1.00
2018-03-29T20:08:45.582Z,0.90
2018-03-29T20:11:12.605Z,1.10
2018-03-29T20:13:39.857Z,0.90
2018-03-29T20:16:06.890Z,0.60
2018-03-29T20:18:34.142Z,0.90
2018-03-29T20:21:01.398Z,0.90
2018-03-29T20:23:28.656Z,0.87
2018-03-29T20:25:55.928Z,0.90
2018-03-29T20:28:23.206Z,0.90
2018-03-29T20:30:50.462Z,0.57
2018-03-29T20:33:17.753Z,0.73
2018-03-29T20:35:45.091Z,0.83
2018-03-29T20:38:12.391Z,1.00
2018-03-29T20:40:39.744Z,0.70
2018-03-29T20:43:07.018Z,1.03
2018-03-29T20:45:34.304Z,1.47
2018-03-29T20:48:01.570Z,1.50
2018-03-29T20:50:28.841Z,1.00
2018-03-29T20:52:56.115Z,1.10
2018-03-29T20:55:23.394Z,1.30
2018-03-29T20:57:50.658Z,1.67
2018-03-29T21:00:17.916Z,1.37
2018-03-29T21:02:45.208Z,1.10
2018-03-29T21:05:12.516Z,1.20
2018-03-29T21:07:39.779Z,1.07
2018-03-29T21:10:07.628Z,1.13
2018-03-29T21:12:34.892Z,1.10
2018-03-29T21:15:02.169Z,1.20
2018-03-29T21:17:29.930Z,0.90
2018-03-29T21:19:58.814Z,1.67
2018-03-29T21:22:26.087Z,1.67
2018-03-29T21:24:53.339Z,1.30
2018-03-29T21:27:20.602Z,2.50
2018-03-29T21:29:47.874Z,2.27
2018-03-29T21:32:15.133Z,2.07
2018-03-29T21:34:42.419Z,1.87
2018-03-29T21:37:09.737Z,2.07
2018-03-29T21:39:37.674Z,2.23
2018-03-29T21:42:04.953Z,4.60
2018-03-29T21:44:32.292Z,4.60
2018-03-29T21:46:59.766Z,2.23
2018-03-29T21:49:27.214Z,1.80
2018-03-29T21:51:55.301Z,2.47
2018-03-29T21:54:22.710Z,2.03
2018-03-29T21:56:49.962Z,2.53
2018-03-29T21:59:17.230Z,1.83
2018-03-29T22:01:44.490Z,2.27
2018-03-29T22:04:11.760Z,2.00
2018-03-29T22:06:39.025Z,1.40
2018-03-29T22:09:05.949Z,1.50
2018-03-29T22:11:33.282Z,1.50
2018-03-29T22:14:00.547Z,1.50
2018-03-29T22:16:27.995Z,1.40
2018-03-29T22:18:55.259Z,1.10
2018-03-29T22:21:22.514Z,1.40
2018-03-29T22:23:49.974Z,1.13
2018-03-29T22:26:17.225Z,0.93
2018-03-29T22:28:44.517Z,0.90
2018-03-29T22:31:11.845Z,1.20
2018-03-29T22:33:38.879Z,0.80
2018-03-29T22:36:06.360Z,1.20
2018-03-29T22:38:33.642Z,1.00
2018-03-29T22:41:01.318Z,1.33
2018-03-29T22:43:29.067Z,1.07
2018-03-29T22:45:56.379Z,1.30
2018-03-29T22:48:23.734Z,1.50
2018-03-29T22:50:51.004Z,1.33
2018-03-29T22:53:18.287Z,1.43
2018-03-29T22:55:45.546Z,2.37
2018-03-29T22:58:12.805Z,1.80
2018-03-29T23:00:40.051Z,2.40
2018-03-29T23:03:07.298Z,1.60
2018-03-29T23:05:34.554Z,2.10
2018-03-29T23:08:01.828Z,2.10
2018-03-29T23:10:29.282Z,2.97
2018-03-29T23:12:56.546Z,3.00
2018-03-29T23:15:23.801Z,3.37
2018-03-29T23:17:51.068Z,2.77
2018-03-29T23:20:18.425Z,3.70
2018-03-29T23:22:45.696Z,2.70
2018-03-29T23:25:12.955Z,3.67
2018-03-29T23:27:40.222Z,3.13
2018-03-29T23:30:08.372Z,2.70
2018-03-29T23:32:35.652Z,2.43
2018-03-29T23:35:02.906Z,2.27
2018-03-29T23:37:30.169Z,1.83
2018-03-29T23:39:57.685Z,1.80
2018-03-29T23:42:25.303Z,1.70
2018-03-29T23:44:52.581Z,0.97
2018-03-29T23:47:19.845Z,2.13
2018-03-29T23:49:47.108Z,1.13
2018-03-29T23:52:14.379Z,1.20
2018-03-29T23:54:41.637Z,1.70
2018-03-29T23:57:08.941Z,1.80
2018-03-29T23:59:36.205Z,1.87
